createdAt,value
2023-05-06T00:00:35.289Z,13.78
2023-05-06T00:03:02.152Z,13.86
2023-05-06T00:05:28.870Z,13.90
2023-05-06T00:07:55.762Z,13.81
2023-05-06T00:10:22.309Z,13.80
2023-05-06T00:12:48.959Z,13.81
2023-05-06T00:15:15.529Z,13.74
2023-05-06T00:17:42.106Z,13.72
2023-05-06T00:20:10.308Z,13.43
2023-05-06T00:22:36.720Z,13.32
2023-05-06T00:25:03.243Z,13.21
2023-05-06T00:27:29.717Z,13.47
2023-05-06T00:29:56.707Z,13.49
2023-05-06T00:32:23.194Z,13.55
2023-05-06T00:34:50.960Z,13.58
2023-05-06T00:37:17.815Z,13.57
2023-05-06T00:39:44.803Z,13.61
2023-05-06T00:42:11.292Z,13.61
2023-05-06T00:44:37.794Z,13.64
2023-05-06T00:47:04.411Z,13.63
2023-05-06T00:49:31.238Z,13.60
2023-05-06T00:51:58.815Z,13.53
2023-05-06T00:54:26.663Z,13.51
2023-05-06T00:56:53.819Z,13.41
2023-05-06T00:59:20.308Z,13.33
2023-05-06T01:01:47.223Z,13.19
2023-05-06T01:04:13.744Z,13.22
2023-05-06T01:07:06.993Z,13.25
2023-05-06T01:09:42.859Z,13.38
2023-05-06T01:12:21.311Z,13.20
2023-05-06T01:15:08.844Z,13.23
2023-05-06T01:17:42.351Z,13.27
2023-05-06T01:20:11.826Z,13.33
2023-05-06T01:22:39.013Z,13.43
2023-05-06T01:25:06.487Z,13.46
2023-05-06T01:27:33.165Z,13.46
2023-05-06T01:29:59.952Z,13.50
2023-05-06T01:32:26.475Z,13.55
2023-05-06T01:35:03.386Z,13.52
2023-05-06T01:37:33.371Z,13.56
2023-05-06T01:40:00.739Z,13.64
2023-05-06T01:42:27.641Z,13.60
2023-05-06T01:44:55.683Z,13.53
2023-05-06T01:47:22.310Z,13.59
2023-05-06T01:49:48.864Z,13.62
2023-05-06T01:52:15.799Z,13.57
2023-05-06T01:54:42.268Z,13.40
2023-05-06T01:57:08.740Z,13.43
2023-05-06T01:59:35.348Z,13.66
2023-05-06T02:02:02.024Z,13.78
2023-05-06T02:04:29.165Z,13.79
2023-05-06T02:06:55.740Z,13.71
2023-05-06T02:09:22.254Z,13.68
2023-05-06T02:11:56.270Z,13.79
2023-05-06T02:14:23.665Z,14.03
2023-05-06T02:16:51.249Z,14.16
2023-05-06T02:19:17.945Z,13.68
2023-05-06T02:21:44.439Z,13.73
2023-05-06T02:24:10.872Z,13.83
2023-05-06T02:26:37.344Z,13.88
2023-05-06T02:29:04.058Z,14.03
2023-05-06T02:31:30.702Z,14.14
2023-05-06T02:33:57.422Z,14.05
2023-05-06T02:36:23.903Z,14.08
2023-05-06T02:38:50.425Z,13.97
2023-05-06T02:41:16.912Z,14.01
2023-05-06T02:43:43.367Z,14.08
2023-05-06T02:46:09.933Z,14.12
2023-05-06T02:48:36.454Z,14.09
2023-05-06T02:51:03.923Z,13.92
2023-05-06T02:53:30.648Z,13.98
2023-05-06T02:55:57.127Z,13.86
2023-05-06T02:58:23.685Z,13.91
2023-05-06T03:00:50.681Z,14.00
2023-05-06T03:03:17.470Z,14.01
2023-05-06T03:05:43.982Z,14.00
2023-05-06T03:08:10.550Z,13.95
2023-05-06T03:10:37.140Z,13.90
2023-05-06T03:13:03.974Z,13.82
2023-05-06T03:15:31.995Z,13.65
2023-05-06T03:17:58.599Z,13.68
2023-05-06T03:20:27.215Z,13.57
2023-05-06T03:22:56.481Z,13.59
2023-05-06T03:25:23.655Z,13.49
2023-05-06T03:27:50.829Z,13.39
2023-05-06T03:30:20.914Z,13.43
2023-05-06T03:32:49.387Z,13.30
2023-05-06T03:35:22.642Z,13.16
2023-05-06T03:37:53.217Z,13.14
2023-05-06T03:40:21.793Z,13.04
2023-05-06T03:42:49.134Z,13.25
2023-05-06T03:45:15.657Z,13.18
2023-05-06T03:47:43.627Z,13.23
2023-05-06T03:50:10.828Z,13.27
2023-05-06T03:52:38.969Z,13.07
2023-05-06T03:55:06.450Z,12.90
2023-05-06T03:57:34.108Z,12.98
2023-05-06T04:00:01.109Z,13.10
2023-05-06T04:02:29.279Z,13.32
2023-05-06T04:04:57.007Z,13.22
2023-05-06T04:07:23.544Z,13.52
2023-05-06T04:09:50.659Z,13.53
2023-05-06T04:12:18.005Z,13.56
2023-05-06T04:14:45.524Z,13.37
2023-05-06T04:17:12.655Z,13.07
2023-05-06T04:19:39.314Z,13.15
2023-05-06T04:22:06.073Z,13.38
2023-05-06T04:24:33.817Z,13.36
2023-05-06T04:27:03.012Z,13.51
2023-05-06T04:29:30.319Z,13.47
2023-05-06T04:32:02.992Z,13.47
2023-05-06T04:34:31.536Z,13.59
2023-05-06T04:37:00.979Z,13.71
2023-05-06T04:39:39.380Z,13.89
2023-05-06T04:42:07.165Z,13.74
2023-05-06T04:44:43.505Z,13.94
2023-05-06T04:47:10.687Z,14.03
2023-05-06T04:49:39.523Z,14.29
2023-05-06T04:52:06.927Z,14.55
2023-05-06T04:54:33.749Z,14.65
2023-05-06T04:57:00.932Z,15.00
2023-05-06T04:59:28.202Z,15.11
2023-05-06T05:01:54.811Z,15.07
2023-05-06T05:04:21.272Z,14.95
2023-05-06T05:06:47.811Z,15.21
2023-05-06T05:09:14.920Z,15.40
2023-05-06T05:11:44.232Z,15.34
2023-05-06T05:14:10.949Z,15.36
2023-05-06T05:16:37.827Z,15.43
2023-05-06T05:19:08.960Z,15.42
2023-05-06T05:21:36.387Z,15.64
2023-05-06T05:24:04.078Z,15.72
2023-05-06T05:26:31.042Z,15.63
2023-05-06T05:28:59.306Z,15.67
2023-05-06T05:31:26.132Z,15.68
2023-05-06T05:33:52.735Z,15.79
2023-05-06T05:36:22.043Z,16.16
2023-05-06T05:38:51.330Z,16.37
2023-05-06T05:41:18.950Z,16.30
2023-05-06T05:43:45.841Z,16.19
2023-05-06T05:46:14.120Z,16.09
2023-05-06T05:48:42.236Z,16.34
2023-05-06T05:51:10.396Z,16.56
2023-05-06T05:53:36.951Z,16.75
2023-05-06T05:56:05.127Z,16.87
2023-05-06T05:58:32.131Z,16.93
2023-05-06T06:00:59.654Z,17.55
2023-05-06T06:03:26.878Z,17.79
2023-05-06T06:05:55.149Z,17.15
2023-05-06T06:08:23.118Z,17.24
2023-05-06T06:10:51.744Z,17.75
2023-05-06T06:13:22.862Z,17.79
2023-05-06T06:15:49.683Z,17.77
2023-05-06T06:18:16.411Z,17.74
2023-05-06T06:20:42.973Z,17.65
2023-05-06T06:23:09.537Z,17.74
2023-05-06T06:25:36.020Z,17.57
2023-05-06T06:28:02.530Z,17.76
2023-05-06T06:30:29.084Z,17.97
2023-05-06T06:32:56.511Z,17.70
2023-05-06T06:35:23.776Z,17.93
2023-05-06T06:37:50.669Z,17.71
2023-05-06T06:40:17.233Z,17.95
2023-05-06T06:42:43.811Z,18.16
2023-05-06T06:45:34.779Z,18.43
2023-05-06T06:48:01.372Z,18.76
2023-05-06T06:50:27.911Z,19.14
2023-05-06T06:52:54.377Z,18.90
2023-05-06T06:55:20.993Z,18.76
2023-05-06T06:57:47.738Z,19.38
2023-05-06T07:00:14.417Z,19.06
2023-05-06T07:02:40.999Z,18.22
2023-05-06T07:05:08.067Z,18.24
2023-05-06T07:07:35.047Z,18.82
2023-05-06T07:10:01.608Z,19.09
2023-05-06T07:12:28.446Z,19.32
2023-05-06T07:14:54.944Z,19.56
2023-05-06T07:17:21.431Z,19.14
2023-05-06T07:19:48.034Z,18.73
2023-05-06T07:22:14.629Z,19.14
2023-05-06T07:24:41.263Z,19.25
2023-05-06T07:27:07.712Z,19.52
2023-05-06T07:29:36.684Z,19.74
2023-05-06T07:32:03.609Z,20.33
2023-05-06T07:34:30.313Z,19.49
2023-05-06T07:36:57.257Z,19.74
2023-05-06T07:39:23.757Z,20.07
2023-05-06T07:41:50.240Z,19.65
2023-05-06T07:44:16.734Z,19.67
2023-05-06T07:46:43.285Z,19.97
2023-05-06T07:49:09.847Z,20.14
2023-05-06T07:51:36.380Z,21.20
2023-05-06T07:54:02.851Z,21.32
2023-05-06T07:56:29.326Z,21.16
2023-05-06T07:58:56.028Z,22.02
2023-05-06T08:01:22.592Z,21.68
2023-05-06T08:03:50.992Z,22.55
2023-05-06T08:06:17.752Z,22.53
2023-05-06T08:08:44.276Z,22.14
2023-05-06T08:11:10.754Z,22.81
2023-05-06T08:13:37.291Z,23.29
2023-05-06T08:16:03.976Z,23.53
2023-05-06T08:18:30.620Z,23.32
2023-05-06T08:20:57.108Z,24.47
2023-05-06T08:23:23.658Z,24.61
2023-05-06T08:25:50.190Z,24.63
2023-05-06T08:28:16.670Z,24.63
2023-05-06T08:30:43.259Z,24.71
2023-05-06T08:33:09.790Z,24.80
2023-05-06T08:35:36.295Z,25.34
2023-05-06T08:38:02.823Z,25.53
2023-05-06T08:40:30.560Z,25.03
2023-05-06T08:42:57.535Z,25.71
2023-05-06T08:45:24.180Z,25.75
2023-05-06T08:47:50.903Z,26.09
2023-05-06T08:50:17.500Z,25.93
2023-05-06T08:52:44.032Z,25.91
2023-05-06T08:55:11.379Z,26.49
2023-05-06T08:57:38.310Z,25.01
2023-05-06T09:00:05.178Z,25.44
2023-05-06T09:02:31.785Z,25.58
2023-05-06T09:04:59.633Z,25.89
2023-05-06T09:07:26.180Z,25.34
2023-05-06T09:09:52.670Z,24.59
2023-05-06T09:12:19.226Z,24.01
2023-05-06T09:14:49.217Z,24.51
2023-05-06T09:17:28.150Z,25.20
2023-05-06T09:19:56.940Z,25.72
2023-05-06T09:22:24.392Z,27.06
2023-05-06T09:24:57.097Z,26.71
2023-05-06T09:27:25.110Z,27.23
2023-05-06T09:30:06.094Z,27.32
2023-05-06T09:32:33.092Z,26.72
2023-05-06T09:35:00.178Z,25.44
2023-05-06T09:37:27.200Z,25.51
2023-05-06T09:39:57.996Z,26.21
2023-05-06T09:42:25.529Z,26.76
2023-05-06T09:44:53.935Z,26.19
2023-05-06T09:47:26.883Z,26.85
2023-05-06T09:50:00.810Z,26.71
2023-05-06T09:52:31.261Z,26.53
2023-05-06T09:54:57.911Z,26.44
2023-05-06T09:57:24.455Z,26.76
2023-05-06T09:59:54.447Z,26.91
2023-05-06T10:02:22.519Z,27.81
2023-05-06T10:04:49.511Z,26.66
2023-05-06T10:07:19.691Z,27.42
2023-05-06T10:09:46.845Z,27.67
2023-05-06T10:12:13.702Z,28.13
2023-05-06T10:14:40.447Z,27.75
2023-05-06T10:17:08.164Z,27.34
2023-05-06T10:19:35.266Z,26.47
2023-05-06T10:22:14.954Z,26.06
2023-05-06T10:24:45.887Z,26.15
2023-05-06T10:27:12.551Z,27.24
2023-05-06T10:29:39.914Z,26.94
2023-05-06T10:32:09.299Z,26.57
2023-05-06T10:34:37.865Z,26.22
2023-05-06T10:37:05.790Z,25.96
2023-05-06T10:39:32.736Z,26.46
2023-05-06T10:41:59.215Z,26.80
2023-05-06T10:44:45.660Z,27.23
2023-05-06T10:47:12.637Z,28.28
2023-05-06T10:49:39.115Z,29.39
2023-05-06T10:52:15.052Z,29.83
2023-05-06T10:54:51.878Z,29.93
2023-05-06T10:57:20.683Z,29.55
2023-05-06T10:59:48.424Z,30.83
2023-05-06T11:02:19.903Z,30.21
2023-05-06T11:04:59.544Z,30.62
2023-05-06T11:07:26.109Z,29.53
2023-05-06T11:09:59.607Z,28.83
2023-05-06T11:12:45.606Z,30.60
2023-05-06T11:15:32.380Z,30.28
2023-05-06T11:17:58.957Z,30.46
2023-05-06T11:20:26.259Z,28.78
2023-05-06T11:22:53.533Z,27.96
2023-05-06T11:25:39.084Z,28.42
2023-05-06T11:28:10.327Z,30.28
2023-05-06T11:30:40.217Z,31.17
2023-05-06T11:33:07.901Z,31.76
2023-05-06T11:35:35.537Z,30.36
2023-05-06T11:38:02.251Z,29.74
2023-05-06T11:40:32.216Z,29.70
2023-05-06T11:43:10.927Z,29.58
2023-05-06T11:45:41.415Z,29.13
2023-05-06T11:48:11.451Z,30.01
2023-05-06T11:50:37.979Z,29.58
2023-05-06T11:53:04.491Z,28.09
2023-05-06T11:55:31.242Z,27.12
2023-05-06T11:57:57.704Z,27.81
2023-05-06T12:00:24.191Z,27.96
2023-05-06T12:02:54.554Z,28.18
2023-05-06T12:05:23.015Z,27.59
2023-05-06T12:07:49.612Z,27.28
2023-05-06T12:10:17.226Z,27.30
2023-05-06T12:12:43.883Z,26.85
2023-05-06T12:15:11.246Z,26.72
2023-05-06T12:17:37.888Z,27.12
2023-05-06T12:20:04.662Z,26.36
2023-05-06T12:22:31.095Z,24.79
2023-05-06T12:24:57.829Z,23.12
2023-05-06T12:27:31.270Z,23.67
2023-05-06T12:29:58.692Z,23.09
2023-05-06T12:32:25.283Z,23.34
2023-05-06T12:34:51.793Z,23.47
2023-05-06T12:37:28.499Z,22.52
2023-05-06T12:39:58.467Z,22.46
2023-05-06T12:42:25.529Z,22.62
2023-05-06T12:44:52.000Z,22.75
2023-05-06T12:47:22.896Z,24.15
2023-05-06T12:49:51.167Z,24.57
2023-05-06T12:52:19.057Z,25.53
2023-05-06T12:54:45.932Z,26.43
2023-05-06T12:57:12.427Z,26.86
2023-05-06T12:59:39.192Z,26.76
2023-05-06T13:02:06.417Z,27.33
2023-05-06T13:04:32.961Z,27.81
2023-05-06T13:06:59.600Z,28.09
2023-05-06T13:09:26.227Z,27.69
2023-05-06T13:11:53.002Z,26.57
2023-05-06T13:14:19.522Z,27.55
2023-05-06T13:16:46.483Z,26.98
2023-05-06T13:19:30.777Z,27.16
2023-05-06T13:21:58.971Z,27.36
2023-05-06T13:24:25.549Z,27.77
2023-05-06T13:26:52.250Z,26.41
2023-05-06T13:29:19.078Z,25.41
2023-05-06T13:31:45.578Z,25.66
2023-05-06T13:34:12.772Z,25.91
2023-05-06T13:36:39.240Z,26.33
2023-05-06T13:39:05.746Z,26.70
2023-05-06T13:41:32.777Z,26.82
2023-05-06T13:43:59.381Z,25.70
2023-05-06T13:46:27.291Z,25.31
2023-05-06T13:48:53.895Z,25.83
2023-05-06T13:51:20.505Z,26.26
2023-05-06T13:53:46.965Z,25.86
2023-05-06T13:56:13.500Z,26.18
2023-05-06T13:58:39.915Z,25.10
2023-05-06T14:01:06.429Z,25.28
2023-05-06T14:03:32.966Z,24.47
2023-05-06T14:05:59.510Z,25.29
2023-05-06T14:08:26.134Z,24.51
2023-05-06T14:10:52.703Z,25.35
2023-05-06T14:13:19.299Z,25.39
2023-05-06T14:15:45.871Z,25.54
2023-05-06T14:18:12.513Z,25.60
2023-05-06T14:20:39.106Z,25.19
2023-05-06T14:23:06.907Z,25.12
2023-05-06T14:25:33.438Z,25.28
2023-05-06T14:28:00.133Z,24.98
2023-05-06T14:30:26.722Z,24.90
2023-05-06T14:32:53.228Z,25.14
2023-05-06T14:35:19.896Z,25.22
2023-05-06T14:37:46.407Z,25.09
2023-05-06T14:40:13.084Z,25.70
2023-05-06T14:42:39.578Z,25.36
2023-05-06T14:45:06.516Z,25.39
2023-05-06T14:47:33.009Z,24.86
2023-05-06T14:49:59.584Z,25.03
2023-05-06T14:52:26.126Z,24.57
2023-05-06T14:54:52.638Z,25.05
2023-05-06T14:57:19.190Z,25.99
2023-05-06T14:59:46.107Z,25.28
2023-05-06T15:02:12.747Z,25.44
2023-05-06T15:04:39.185Z,25.27
2023-05-06T15:07:05.678Z,24.91
2023-05-06T15:09:32.179Z,24.78
2023-05-06T15:11:58.756Z,25.24
2023-05-06T15:14:25.276Z,24.34
2023-05-06T15:16:56.389Z,24.08
2023-05-06T15:19:22.965Z,24.30
2023-05-06T15:21:49.454Z,24.26
2023-05-06T15:24:15.900Z,24.07
2023-05-06T15:26:42.637Z,23.64
2023-05-06T15:29:09.228Z,23.66
2023-05-06T15:31:39.103Z,23.75
2023-05-06T15:34:06.388Z,23.71
2023-05-06T15:36:32.868Z,23.31
2023-05-06T15:39:00.681Z,23.28
2023-05-06T15:41:28.386Z,23.32
2023-05-06T15:43:56.348Z,23.19
2023-05-06T15:46:23.026Z,23.94
2023-05-06T15:48:54.462Z,23.53
2023-05-06T15:51:35.607Z,23.41
2023-05-06T15:54:02.052Z,23.45
2023-05-06T15:56:28.489Z,23.28
2023-05-06T15:58:55.299Z,22.92
2023-05-06T16:01:31.635Z,22.78
2023-05-06T16:04:08.670Z,22.77
2023-05-06T16:06:35.480Z,22.85
2023-05-06T16:09:02.056Z,22.78
2023-05-06T16:11:28.565Z,23.15
2023-05-06T16:13:56.414Z,23.32
2023-05-06T16:16:22.996Z,23.47
2023-05-06T16:18:49.574Z,23.40
2023-05-06T16:21:16.086Z,23.08
2023-05-06T16:23:42.491Z,23.09
2023-05-06T16:26:09.051Z,22.78
2023-05-06T16:28:36.017Z,22.99
2023-05-06T16:31:03.730Z,22.99
2023-05-06T16:33:30.515Z,22.72
2023-05-06T16:35:57.043Z,22.86
2023-05-06T16:38:23.814Z,22.80
2023-05-06T16:40:51.147Z,22.90
2023-05-06T16:43:18.711Z,22.52
2023-05-06T16:45:45.766Z,22.23
2023-05-06T16:48:14.001Z,22.00
2023-05-06T16:50:40.864Z,21.86
2023-05-06T16:53:08.099Z,21.72
2023-05-06T16:55:34.806Z,21.61
2023-05-06T16:58:02.131Z,21.51
2023-05-06T17:00:28.902Z,21.11
2023-05-06T17:02:55.830Z,21.10
2023-05-06T17:05:22.569Z,20.86
2023-05-06T17:07:50.316Z,20.77
2023-05-06T17:10:17.528Z,20.93
2023-05-06T17:12:44.065Z,20.69
2023-05-06T17:15:11.316Z,20.83
2023-05-06T17:17:37.797Z,20.62
2023-05-06T17:20:05.266Z,20.50
2023-05-06T17:22:31.816Z,20.74
2023-05-06T17:24:58.330Z,20.85
2023-05-06T17:27:24.747Z,20.25
2023-05-06T17:29:51.374Z,20.29
2023-05-06T17:32:18.216Z,20.42
2023-05-06T17:34:45.649Z,20.34
2023-05-06T17:37:12.252Z,20.01
2023-05-06T17:39:38.859Z,19.89
2023-05-06T17:42:05.442Z,19.82
2023-05-06T17:44:32.930Z,19.87
2023-05-06T17:46:59.593Z,19.85
2023-05-06T17:49:26.186Z,19.73
2023-05-06T17:51:52.743Z,19.80
2023-05-06T17:54:19.257Z,19.47
2023-05-06T17:56:50.383Z,19.17
2023-05-06T17:59:17.769Z,19.29
2023-05-06T18:01:44.325Z,19.36
2023-05-06T18:04:11.383Z,19.48
2023-05-06T18:06:37.875Z,19.38
2023-05-06T18:09:04.591Z,19.52
2023-05-06T18:11:31.075Z,19.39
2023-05-06T18:14:00.231Z,19.14
2023-05-06T18:16:26.774Z,19.23
2023-05-06T18:18:53.374Z,19.04
2023-05-06T18:21:19.800Z,18.79
2023-05-06T18:23:46.264Z,18.93
2023-05-06T18:26:12.746Z,18.95
2023-05-06T18:28:39.741Z,18.99
2023-05-06T18:31:06.453Z,19.05
2023-05-06T18:33:33.134Z,19.01
2023-05-06T18:35:59.772Z,18.90
2023-05-06T18:38:26.547Z,18.99
2023-05-06T18:40:53.338Z,18.65
2023-05-06T18:43:19.946Z,18.39
2023-05-06T18:45:46.625Z,18.54
2023-05-06T18:48:13.185Z,18.78
2023-05-06T18:50:41.244Z,18.73
2023-05-06T18:53:07.716Z,18.76
2023-05-06T18:55:34.143Z,18.65
2023-05-06T18:58:05.651Z,18.19
2023-05-06T19:00:32.627Z,18.01
2023-05-06T19:02:59.156Z,17.92
2023-05-06T19:05:25.769Z,18.29
2023-05-06T19:07:52.337Z,18.19
2023-05-06T19:10:18.896Z,18.31
2023-05-06T19:12:45.570Z,18.36
2023-05-06T19:15:13.940Z,18.40
2023-05-06T19:17:40.709Z,18.34
2023-05-06T19:20:08.101Z,18.19
2023-05-06T19:22:34.655Z,17.98
2023-05-06T19:25:01.401Z,18.03
2023-05-06T19:27:28.727Z,18.15
2023-05-06T19:29:55.218Z,17.94
2023-05-06T19:32:21.686Z,18.07
2023-05-06T19:34:48.253Z,17.75
2023-05-06T19:37:14.741Z,17.90
2023-05-06T19:39:41.424Z,17.92
2023-05-06T19:42:08.587Z,17.80
2023-05-06T19:44:35.107Z,17.96
2023-05-06T19:47:01.550Z,18.01
2023-05-06T19:49:28.108Z,17.84
2023-05-06T19:51:54.543Z,17.81
2023-05-06T19:54:22.344Z,17.93
2023-05-06T19:56:48.871Z,17.77
2023-05-06T19:59:17.553Z,17.77
2023-05-06T20:01:44.266Z,17.77
2023-05-06T20:04:10.941Z,17.67
2023-05-06T20:06:37.432Z,17.60
2023-05-06T20:09:03.897Z,17.57
2023-05-06T20:11:30.441Z,17.50
2023-05-06T20:13:56.955Z,17.52
2023-05-06T20:16:23.776Z,17.53
2023-05-06T20:18:51.526Z,17.47
2023-05-06T20:21:17.985Z,17.52
2023-05-06T20:23:44.700Z,17.50
2023-05-06T20:26:11.207Z,17.56
2023-05-06T20:28:39.179Z,17.48
2023-05-06T20:31:06.360Z,17.50
2023-05-06T20:33:32.838Z,17.52
2023-05-06T20:35:59.264Z,17.07
2023-05-06T20:38:27.133Z,17.07
2023-05-06T20:40:53.638Z,17.05
2023-05-06T20:43:20.092Z,17.06
2023-05-06T20:45:46.657Z,17.16
2023-05-06T20:48:14.955Z,17.25
2023-05-06T20:50:41.910Z,17.15
2023-05-06T20:53:08.395Z,17.08
2023-05-06T20:55:35.008Z,17.11
2023-05-06T20:58:01.472Z,17.17
2023-05-06T21:00:28.063Z,17.22
2023-05-06T21:02:54.607Z,17.22
2023-05-06T21:05:21.164Z,17.28
2023-05-06T21:07:47.688Z,17.22
2023-05-06T21:10:14.585Z,17.03
2023-05-06T21:12:46.561Z,17.07
2023-05-06T21:15:13.502Z,16.78
2023-05-06T21:17:40.270Z,16.59
2023-05-06T21:20:07.204Z,16.43
2023-05-06T21:22:33.735Z,16.34
2023-05-06T21:25:00.211Z,16.57
2023-05-06T21:27:26.684Z,16.64
2023-05-06T21:29:53.240Z,16.65
2023-05-06T21:32:19.907Z,16.63
2023-05-06T21:34:46.359Z,16.57
2023-05-06T21:37:12.839Z,16.53
2023-05-06T21:39:39.270Z,16.59
2023-05-06T21:42:05.710Z,16.55
2023-05-06T21:44:32.173Z,16.56
2023-05-06T21:46:58.886Z,16.58
2023-05-06T21:49:25.352Z,16.60
2023-05-06T21:51:51.806Z,16.57
2023-05-06T21:54:18.338Z,16.66
2023-05-06T21:56:44.821Z,16.77
2023-05-06T21:59:11.337Z,16.90
2023-05-06T22:01:38.520Z,16.59
2023-05-06T22:04:11.107Z,16.49
2023-05-06T22:06:38.186Z,16.30
2023-05-06T22:09:09.106Z,16.33
2023-05-06T22:11:38.726Z,16.34
2023-05-06T22:14:06.415Z,16.45
2023-05-06T22:16:33.995Z,16.22
2023-05-06T22:19:00.889Z,16.25
2023-05-06T22:21:28.933Z,16.45
2023-05-06T22:23:55.365Z,16.39
2023-05-06T22:26:21.860Z,16.45
2023-05-06T22:28:48.332Z,16.30
2023-05-06T22:31:15.564Z,16.43
2023-05-06T22:33:42.113Z,16.45
2023-05-06T22:36:08.600Z,16.38
2023-05-06T22:38:35.228Z,16.42
2023-05-06T22:41:01.672Z,16.48
2023-05-06T22:43:28.116Z,16.42
2023-05-06T22:45:54.640Z,16.43
2023-05-06T22:48:21.591Z,16.21
2023-05-06T22:50:48.050Z,16.27
2023-05-06T22:53:15.635Z,16.23
2023-05-06T22:55:42.513Z,16.30
2023-05-06T22:58:09.348Z,16.48
2023-05-06T23:00:35.808Z,16.38
2023-05-06T23:03:02.824Z,16.34
2023-05-06T23:05:29.435Z,16.58
2023-05-06T23:07:56.044Z,16.65
2023-05-06T23:10:22.532Z,16.75
2023-05-06T23:12:49.065Z,16.84
2023-05-06T23:15:15.548Z,16.88
2023-05-06T23:17:42.025Z,16.65
2023-05-06T23:20:08.744Z,16.65
2023-05-06T23:22:35.645Z,16.72
2023-05-06T23:25:02.119Z,16.85
2023-05-06T23:27:28.547Z,17.00
2023-05-06T23:29:55.021Z,16.91
2023-05-06T23:32:21.451Z,16.95
2023-05-06T23:34:49.080Z,16.86
2023-05-06T23:37:17.454Z,16.91
2023-05-06T23:39:44.021Z,16.94
2023-05-06T23:42:11.239Z,16.97
2023-05-06T23:44:37.709Z,17.03
2023-05-06T23:47:04.173Z,17.05
2023-05-06T23:49:31.217Z,17.08
2023-05-06T23:51:57.732Z,17.09
2023-05-06T23:54:24.252Z,17.01
2023-05-06T23:56:50.833Z,17.05
2023-05-06T23:59:17.261Z,17.02
